sensor_id;sensor_type;location;lat;lon;timestamp;P1;durP1;ratioP1;P2;durP2;ratioP2
10365;SDS011;5229;41.820;23.490;2022-09-09T00:00:12;4.37;;;3.80;;
10365;SDS011;5229;41.820;23.490;2022-09-09T00:02:41;4.73;;;3.50;;
10365;SDS011;5229;41.820;23.490;2022-09-09T00:05:14;8.50;;;4.33;;
10365;SDS011;5229;41.820;23.490;2022-09-09T00:07:52;5.50;;;4.23;;
10365;SDS011;5229;41.820;23.490;2022-09-09T00:10:22;5.77;;;3.93;;
10365;SDS011;5229;41.820;23.490;2022-09-09T00:12:55;6.00;;;4.10;;
10365;SDS011;5229;41.820;23.490;2022-09-09T00:15:29;4.13;;;3.50;;
10365;SDS011;5229;41.820;23.490;2022-09-09T00:18:01;5.20;;;3.77;;
10365;SDS011;5229;41.820;23.490;2022-09-09T00:20:40;4.53;;;3.50;;
10365;SDS011;5229;41.820;23.490;2022-09-09T00:23:14;7.23;;;4.03;;
10365;SDS011;5229;41.820;23.490;2022-09-09T00:25:48;6.27;;;3.83;;
10365;SDS011;5229;41.820;23.490;2022-09-09T00:28:22;5.60;;;3.83;;
10365;SDS011;5229;41.820;23.490;2022-09-09T00:30:52;3.57;;;3.23;;
10365;SDS011;5229;41.820;23.490;2022-09-09T00:33:20;7.03;;;3.60;;
10365;SDS011;5229;41.820;23.490;2022-09-09T00:35:50;7.53;;;3.73;;
10365;SDS011;5229;41.820;23.490;2022-09-09T00:38:20;8.80;;;4.53;;
10365;SDS011;5229;41.820;23.490;2022-09-09T00:40:56;5.43;;;4.00;;
10365;SDS011;5229;41.820;23.490;2022-09-09T00:43:28;5.10;;;4.37;;
10365;SDS011;5229;41.820;23.490;2022-09-09T00:46:05;6.00;;;4.47;;
10365;SDS011;5229;41.820;23.490;2022-09-09T00:48:54;5.23;;;4.00;;
10365;SDS011;5229;41.820;23.490;2022-09-09T00:51:29;5.03;;;4.23;;
10365;SDS011;5229;41.820;23.490;2022-09-09T00:54:22;6.20;;;4.07;;
10365;SDS011;5229;41.820;23.490;2022-09-09T00:57:06;4.80;;;4.30;;
10365;SDS011;5229;41.820;23.490;2022-09-09T00:59:45;4.33;;;3.63;;
10365;SDS011;5229;41.820;23.490;2022-09-09T01:02:15;6.37;;;4.40;;
10365;SDS011;5229;41.820;23.490;2022-09-09T01:04:51;4.90;;;4.40;;
10365;SDS011;5229;41.820;23.490;2022-09-09T01:07:19;5.33;;;3.73;;
10365;SDS011;5229;41.820;23.490;2022-09-09T01:09:54;7.70;;;4.20;;
10365;SDS011;5229;41.820;23.490;2022-09-09T01:12:25;4.93;;;4.47;;
10365;SDS011;5229;41.820;23.490;2022-09-09T01:15:07;5.23;;;4.10;;
10365;SDS011;5229;41.820;23.490;2022-09-09T01:17:41;6.93;;;4.20;;
10365;SDS011;5229;41.820;23.490;2022-09-09T01:20:16;6.93;;;4.17;;
10365;SDS011;5229;41.820;23.490;2022-09-09T01:22:50;7.63;;;4.03;;
10365;SDS011;5229;41.820;23.490;2022-09-09T01:25:56;5.80;;;4.87;;
10365;SDS011;5229;41.820;23.490;2022-09-09T01:28:42;4.07;;;3.67;;
10365;SDS011;5229;41.820;23.490;2022-09-09T01:31:13;5.37;;;3.43;;
10365;SDS011;5229;41.820;23.490;2022-09-09T01:33:43;5.60;;;3.83;;
10365;SDS011;5229;41.820;23.490;2022-09-09T01:36:11;5.70;;;4.10;;
10365;SDS011;5229;41.820;23.490;2022-09-09T01:38:41;10.40;;;4.37;;
10365;SDS011;5229;41.820;23.490;2022-09-09T01:41:09;4.23;;;3.73;;
10365;SDS011;5229;41.820;23.490;2022-09-09T01:43:36;4.27;;;3.87;;
10365;SDS011;5229;41.820;23.490;2022-09-09T01:46:03;6.03;;;4.53;;
10365;SDS011;5229;41.820;23.490;2022-09-09T01:48:30;6.63;;;4.10;;
10365;SDS011;5229;41.820;23.490;2022-09-09T01:50:57;4.43;;;3.97;;
10365;SDS011;5229;41.820;23.490;2022-09-09T01:53:24;5.00;;;4.13;;
10365;SDS011;5229;41.820;23.490;2022-09-09T01:55:54;5.60;;;3.77;;
10365;SDS011;5229;41.820;23.490;2022-09-09T01:58:31;5.67;;;4.10;;
10365;SDS011;5229;41.820;23.490;2022-09-09T02:01:06;6.00;;;4.03;;
10365;SDS011;5229;41.820;23.490;2022-09-09T02:03:41;4.87;;;3.90;;
10365;SDS011;5229;41.820;23.490;2022-09-09T02:06:14;6.60;;;4.57;;
10365;SDS011;5229;41.820;23.490;2022-09-09T02:08:52;4.90;;;4.40;;
10365;SDS011;5229;41.820;23.490;2022-09-09T02:11:22;5.57;;;4.37;;
10365;SDS011;5229;41.820;23.490;2022-09-09T02:13:52;4.60;;;4.07;;
10365;SDS011;5229;41.820;23.490;2022-09-09T02:16:23;5.27;;;3.90;;
10365;SDS011;5229;41.820;23.490;2022-09-09T02:18:56;4.43;;;4.03;;
10365;SDS011;5229;41.820;23.490;2022-09-09T02:21:28;8.27;;;4.20;;
10365;SDS011;5229;41.820;23.490;2022-09-09T02:23:57;6.87;;;4.50;;
10365;SDS011;5229;41.820;23.490;2022-09-09T02:26:29;4.70;;;4.20;;
10365;SDS011;5229;41.820;23.490;2022-09-09T02:29:01;7.87;;;4.03;;
10365;SDS011;5229;41.820;23.490;2022-09-09T02:31:32;5.43;;;4.73;;
10365;SDS011;5229;41.820;23.490;2022-09-09T02:34:01;6.27;;;4.90;;
10365;SDS011;5229;41.820;23.490;2022-09-09T02:36:32;6.60;;;4.17;;
10365;SDS011;5229;41.820;23.490;2022-09-09T02:39:00;5.53;;;4.10;;
10365;SDS011;5229;41.820;23.490;2022-09-09T02:41:28;5.13;;;4.33;;
10365;SDS011;5229;41.820;23.490;2022-09-09T02:44:00;5.73;;;4.93;;
10365;SDS011;5229;41.820;23.490;2022-09-09T02:46:32;5.60;;;4.43;;
10365;SDS011;5229;41.820;23.490;2022-09-09T02:49:09;7.30;;;5.10;;
10365;SDS011;5229;41.820;23.490;2022-09-09T02:51:39;8.13;;;4.37;;
10365;SDS011;5229;41.820;23.490;2022-09-09T02:54:15;5.20;;;3.87;;
10365;SDS011;5229;41.820;23.490;2022-09-09T02:56:48;6.63;;;4.60;;
10365;SDS011;5229;41.820;23.490;2022-09-09T02:59:20;5.63;;;4.37;;
10365;SDS011;5229;41.820;23.490;2022-09-09T03:01:49;5.27;;;4.73;;
10365;SDS011;5229;41.820;23.490;2022-09-09T03:04:15;4.97;;;4.30;;
10365;SDS011;5229;41.820;23.490;2022-09-09T03:06:42;6.43;;;4.80;;
10365;SDS011;5229;41.820;23.490;2022-09-09T03:09:09;4.20;;;3.80;;
10365;SDS011;5229;41.820;23.490;2022-09-09T03:11:36;5.00;;;4.50;;
10365;SDS011;5229;41.820;23.490;2022-09-09T03:14:03;7.63;;;4.83;;
10365;SDS011;5229;41.820;23.490;2022-09-09T03:16:32;5.43;;;4.73;;
10365;SDS011;5229;41.820;23.490;2022-09-09T03:18:59;6.40;;;4.47;;
10365;SDS011;5229;41.820;23.490;2022-09-09T03:21:26;6.23;;;4.63;;
10365;SDS011;5229;41.820;23.490;2022-09-09T03:23:53;7.97;;;4.37;;
10365;SDS011;5229;41.820;23.490;2022-09-09T03:26:20;6.87;;;4.60;;
10365;SDS011;5229;41.820;23.490;2022-09-09T03:28:48;6.33;;;4.40;;
10365;SDS011;5229;41.820;23.490;2022-09-09T03:31:16;4.47;;;4.07;;
10365;SDS011;5229;41.820;23.490;2022-09-09T03:33:45;5.00;;;3.70;;
10365;SDS011;5229;41.820;23.490;2022-09-09T03:36:13;6.23;;;4.13;;
10365;SDS011;5229;41.820;23.490;2022-09-09T03:38:40;8.80;;;4.53;;
10365;SDS011;5229;41.820;23.490;2022-09-09T03:41:06;5.97;;;4.53;;
10365;SDS011;5229;41.820;23.490;2022-09-09T03:43:34;7.33;;;4.23;;
10365;SDS011;5229;41.820;23.490;2022-09-09T03:46:02;5.13;;;4.57;;
10365;SDS011;5229;41.820;23.490;2022-09-09T03:48:29;6.40;;;3.93;;
10365;SDS011;5229;41.820;23.490;2022-09-09T03:50:57;6.23;;;4.00;;
10365;SDS011;5229;41.820;23.490;2022-09-09T03:53:26;6.33;;;4.17;;
10365;SDS011;5229;41.820;23.490;2022-09-09T03:55:54;4.67;;;3.90;;
10365;SDS011;5229;41.820;23.490;2022-09-09T03:58:25;4.93;;;4.47;;
10365;SDS011;5229;41.820;23.490;2022-09-09T04:00:53;7.03;;;4.63;;
10365;SDS011;5229;41.820;23.490;2022-09-09T04:03:21;4.70;;;4.30;;
10365;SDS011;5229;41.820;23.490;2022-09-09T04:05:49;5.50;;;4.90;;
10365;SDS011;5229;41.820;23.490;2022-09-09T04:08:18;5.33;;;4.60;;
10365;SDS011;5229;41.820;23.490;2022-09-09T04:10:45;8.93;;;4.70;;
10365;SDS011;5229;41.820;23.490;2022-09-09T04:13:13;5.40;;;4.50;;
10365;SDS011;5229;41.820;23.490;2022-09-09T04:15:42;7.90;;;5.20;;
10365;SDS011;5229;41.820;23.490;2022-09-09T04:18:10;5.57;;;4.57;;
10365;SDS011;5229;41.820;23.490;2022-09-09T04:20:37;6.30;;;4.73;;
10365;SDS011;5229;41.820;23.490;2022-09-09T04:23:04;5.53;;;4.50;;
10365;SDS011;5229;41.820;23.490;2022-09-09T04:25:32;5.23;;;4.27;;
10365;SDS011;5229;41.820;23.490;2022-09-09T04:27:59;6.67;;;4.50;;
10365;SDS011;5229;41.820;23.490;2022-09-09T04:30:27;7.73;;;4.63;;
10365;SDS011;5229;41.820;23.490;2022-09-09T04:32:54;6.33;;;4.20;;
10365;SDS011;5229;41.820;23.490;2022-09-09T04:35:21;5.47;;;4.47;;
10365;SDS011;5229;41.820;23.490;2022-09-09T04:37:48;4.70;;;4.07;;
10365;SDS011;5229;41.820;23.490;2022-09-09T04:40:14;4.87;;;4.20;;
10365;SDS011;5229;41.820;23.490;2022-09-09T04:42:43;6.73;;;5.17;;
10365;SDS011;5229;41.820;23.490;2022-09-09T04:45:10;7.60;;;4.70;;
10365;SDS011;5229;41.820;23.490;2022-09-09T04:47:38;4.73;;;4.23;;
10365;SDS011;5229;41.820;23.490;2022-09-09T04:50:06;5.23;;;4.70;;
10365;SDS011;5229;41.820;23.490;2022-09-09T04:52:33;7.87;;;5.07;;
10365;SDS011;5229;41.820;23.490;2022-09-09T04:55:00;6.73;;;5.07;;
10365;SDS011;5229;41.820;23.490;2022-09-09T04:57:27;9.17;;;5.37;;
10365;SDS011;5229;41.820;23.490;2022-09-09T04:59:58;6.00;;;4.67;;
10365;SDS011;5229;41.820;23.490;2022-09-09T05:02:25;6.07;;;4.37;;
10365;SDS011;5229;41.820;23.490;2022-09-09T05:04:52;6.50;;;4.80;;
10365;SDS011;5229;41.820;23.490;2022-09-09T05:07:19;5.73;;;4.80;;
10365;SDS011;5229;41.820;23.490;2022-09-09T05:09:45;5.27;;;4.67;;
10365;SDS011;5229;41.820;23.490;2022-09-09T05:12:14;5.10;;;4.60;;
10365;SDS011;5229;41.820;23.490;2022-09-09T05:14:41;10.00;;;5.00;;
10365;SDS011;5229;41.820;23.490;2022-09-09T05:17:10;6.47;;;5.30;;
10365;SDS011;5229;41.820;23.490;2022-09-09T05:19:38;5.30;;;4.80;;
10365;SDS011;5229;41.820;23.490;2022-09-09T05:22:05;6.83;;;4.90;;
10365;SDS011;5229;41.820;23.490;2022-09-09T05:24:32;6.17;;;4.90;;
10365;SDS011;5229;41.820;23.490;2022-09-09T05:26:59;4.83;;;4.27;;
10365;SDS011;5229;41.820;23.490;2022-09-09T05:29:27;5.27;;;4.60;;
10365;SDS011;5229;41.820;23.490;2022-09-09T05:31:54;6.57;;;4.40;;
10365;SDS011;5229;41.820;23.490;2022-09-09T05:34:22;6.47;;;4.83;;
10365;SDS011;5229;41.820;23.490;2022-09-09T05:36:49;6.43;;;4.00;;
10365;SDS011;5229;41.820;23.490;2022-09-09T05:39:17;5.97;;;4.80;;
10365;SDS011;5229;41.820;23.490;2022-09-09T05:41:44;6.13;;;5.23;;
10365;SDS011;5229;41.820;23.490;2022-09-09T05:44:11;8.30;;;4.67;;
10365;SDS011;5229;41.820;23.490;2022-09-09T05:46:38;7.73;;;4.90;;
10365;SDS011;5229;41.820;23.490;2022-09-09T05:49:05;6.37;;;5.17;;
10365;SDS011;5229;41.820;23.490;2022-09-09T05:51:34;8.52;;;5.50;;
10365;SDS011;5229;41.820;23.490;2022-09-09T05:54:01;7.70;;;6.65;;
10365;SDS011;5229;41.820;23.490;2022-09-09T05:56:28;7.50;;;6.37;;
10365;SDS011;5229;41.820;23.490;2022-09-09T05:58:55;8.00;;;7.15;;
10365;SDS011;5229;41.820;23.490;2022-09-09T06:01:23;8.93;;;7.27;;
10365;SDS011;5229;41.820;23.490;2022-09-09T06:03:52;8.73;;;7.53;;
10365;SDS011;5229;41.820;23.490;2022-09-09T06:06:20;9.50;;;7.37;;
10365;SDS011;5229;41.820;23.490;2022-09-09T06:08:50;7.18;;;6.55;;
10365;SDS011;5229;41.820;23.490;2022-09-09T06:11:19;8.27;;;7.18;;
10365;SDS011;5229;41.820;23.490;2022-09-09T06:13:48;7.15;;;6.45;;
10365;SDS011;5229;41.820;23.490;2022-09-09T06:16:17;8.68;;;7.00;;
10365;SDS011;5229;41.820;23.490;2022-09-09T06:18:45;9.27;;;8.38;;
10365;SDS011;5229;41.820;23.490;2022-09-09T06:21:15;10.30;;;9.20;;
10365;SDS011;5229;41.820;23.490;2022-09-09T06:23:43;12.32;;;9.88;;
10365;SDS011;5229;41.820;23.490;2022-09-09T06:26:11;12.27;;;9.82;;
10365;SDS011;5229;41.820;23.490;2022-09-09T06:28:40;14.15;;;10.95;;
10365;SDS011;5229;41.820;23.490;2022-09-09T06:31:08;11.55;;;10.38;;
10365;SDS011;5229;41.820;23.490;2022-09-09T06:33:37;11.43;;;8.73;;
10365;SDS011;5229;41.820;23.490;2022-09-09T06:36:06;9.07;;;8.18;;
10365;SDS011;5229;41.820;23.490;2022-09-09T06:38:36;9.32;;;8.18;;
10365;SDS011;5229;41.820;23.490;2022-09-09T06:41:03;11.30;;;8.52;;
10365;SDS011;5229;41.820;23.490;2022-09-09T06:43:32;9.45;;;7.03;;
10365;SDS011;5229;41.820;23.490;2022-09-09T06:46:00;7.38;;;6.65;;
10365;SDS011;5229;41.820;23.490;2022-09-09T06:48:29;8.05;;;6.82;;
10365;SDS011;5229;41.820;23.490;2022-09-09T06:51:03;7.60;;;6.45;;
10365;SDS011;5229;41.820;23.490;2022-09-09T06:53:31;7.63;;;6.82;;
10365;SDS011;5229;41.820;23.490;2022-09-09T06:55:59;8.63;;;7.32;;
10365;SDS011;5229;41.820;23.490;2022-09-09T06:58:27;7.57;;;6.88;;
10365;SDS011;5229;41.820;23.490;2022-09-09T07:01:02;7.30;;;6.60;;
10365;SDS011;5229;41.820;23.490;2022-09-09T07:03:30;7.10;;;6.38;;
10365;SDS011;5229;41.820;23.490;2022-09-09T07:05:56;7.15;;;6.45;;
10365;SDS011;5229;41.820;23.490;2022-09-09T07:08:24;10.35;;;6.25;;
10365;SDS011;5229;41.820;23.490;2022-09-09T07:10:51;6.72;;;6.05;;
10365;SDS011;5229;41.820;23.490;2022-09-09T07:13:20;11.07;;;5.72;;
10365;SDS011;5229;41.820;23.490;2022-09-09T07:15:50;7.85;;;6.07;;
10365;SDS011;5229;41.820;23.490;2022-09-09T07:18:19;6.78;;;5.90;;
10365;SDS011;5229;41.820;23.490;2022-09-09T07:20:52;7.72;;;5.65;;
10365;SDS011;5229;41.820;23.490;2022-09-09T07:23:19;6.45;;;5.57;;
10365;SDS011;5229;41.820;23.490;2022-09-09T07:25:46;8.18;;;6.57;;
10365;SDS011;5229;41.820;23.490;2022-09-09T07:28:13;6.60;;;5.97;;
10365;SDS011;5229;41.820;23.490;2022-09-09T07:30:40;6.88;;;6.22;;
10365;SDS011;5229;41.820;23.490;2022-09-09T07:33:07;6.60;;;6.00;;
10365;SDS011;5229;41.820;23.490;2022-09-09T07:35:36;7.85;;;5.38;;
10365;SDS011;5229;41.820;23.490;2022-09-09T07:38:03;6.55;;;5.93;;
10365;SDS011;5229;41.820;23.490;2022-09-09T07:40:32;6.13;;;4.97;;
10365;SDS011;5229;41.820;23.490;2022-09-09T07:42:59;5.43;;;5.03;;
10365;SDS011;5229;41.820;23.490;2022-09-09T07:45:26;4.88;;;4.47;;
10365;SDS011;5229;41.820;23.490;2022-09-09T07:47:54;5.15;;;4.80;;
10365;SDS011;5229;41.820;23.490;2022-09-09T07:50:22;5.68;;;5.10;;
10365;SDS011;5229;41.820;23.490;2022-09-09T07:52:51;4.55;;;4.15;;
10365;SDS011;5229;41.820;23.490;2022-09-09T07:55:18;4.65;;;4.25;;
10365;SDS011;5229;41.820;23.490;2022-09-09T07:57:45;4.40;;;4.10;;
10365;SDS011;5229;41.820;23.490;2022-09-09T08:00:13;4.13;;;3.80;;
10365;SDS011;5229;41.820;23.490;2022-09-09T08:02:40;3.88;;;3.58;;
10365;SDS011;5229;41.820;23.490;2022-09-09T08:05:07;4.85;;;3.58;;
10365;SDS011;5229;41.820;23.490;2022-09-09T08:07:34;3.58;;;3.28;;
10365;SDS011;5229;41.820;23.490;2022-09-09T08:10:02;4.03;;;3.72;;
10365;SDS011;5229;41.820;23.490;2022-09-09T08:12:29;4.88;;;4.10;;
10365;SDS011;5229;41.820;23.490;2022-09-09T08:14:57;4.68;;;4.25;;
10365;SDS011;5229;41.820;23.490;2022-09-09T08:17:24;4.07;;;3.78;;
10365;SDS011;5229;41.820;23.490;2022-09-09T08:19:50;4.82;;;4.43;;
10365;SDS011;5229;41.820;23.490;2022-09-09T08:22:19;4.72;;;4.32;;
10365;SDS011;5229;41.820;23.490;2022-09-09T08:24:48;5.63;;;4.97;;
10365;SDS011;5229;41.820;23.490;2022-09-09T08:27:16;6.05;;;4.70;;
10365;SDS011;5229;41.820;23.490;2022-09-09T08:29:43;6.40;;;4.82;;
10365;SDS011;5229;41.820;23.490;2022-09-09T08:32:09;6.05;;;5.25;;
10365;SDS011;5229;41.820;23.490;2022-09-09T08:34:36;5.40;;;4.90;;
10365;SDS011;5229;41.820;23.490;2022-09-09T08:37:03;4.63;;;4.22;;
10365;SDS011;5229;41.820;23.490;2022-09-09T08:39:30;5.88;;;5.35;;
10365;SDS011;5229;41.820;23.490;2022-09-09T08:42:17;6.07;;;4.93;;
10365;SDS011;5229;41.820;23.490;2022-09-09T08:45:16;6.00;;;5.40;;
10365;SDS011;5229;41.820;23.490;2022-09-09T08:47:55;4.95;;;4.55;;
10365;SDS011;5229;41.820;23.490;2022-09-09T08:50:35;5.75;;;4.90;;
10365;SDS011;5229;41.820;23.490;2022-09-09T08:53:04;5.40;;;4.90;;
10365;SDS011;5229;41.820;23.490;2022-09-09T08:55:37;5.57;;;4.70;;
10365;SDS011;5229;41.820;23.490;2022-09-09T08:58:15;5.78;;;4.78;;
10365;SDS011;5229;41.820;23.490;2022-09-09T09:00:46;5.13;;;4.45;;
10365;SDS011;5229;41.820;23.490;2022-09-09T09:03:28;5.78;;;4.82;;
10365;SDS011;5229;41.820;23.490;2022-09-09T09:06:03;14.75;;;5.40;;
10365;SDS011;5229;41.820;23.490;2022-09-09T09:08:42;4.78;;;4.38;;
10365;SDS011;5229;41.820;23.490;2022-09-09T09:11:14;8.18;;;4.53;;
10365;SDS011;5229;41.820;23.490;2022-09-09T09:13:43;5.22;;;3.90;;
10365;SDS011;5229;41.820;23.490;2022-09-09T09:16:19;4.72;;;4.32;;
10365;SDS011;5229;41.820;23.490;2022-09-09T09:18:50;4.93;;;4.40;;
10365;SDS011;5229;41.820;23.490;2022-09-09T09:21:19;4.20;;;3.90;;
10365;SDS011;5229;41.820;23.490;2022-09-09T09:24:01;4.38;;;4.03;;
10365;SDS011;5229;41.820;23.490;2022-09-09T09:26:32;10.30;;;4.25;;
10365;SDS011;5229;41.820;23.490;2022-09-09T09:29:04;4.60;;;4.10;;
10365;SDS011;5229;41.820;23.490;2022-09-09T09:31:37;6.40;;;4.18;;
10365;SDS011;5229;41.820;23.490;2022-09-09T09:34:04;9.18;;;4.30;;
10365;SDS011;5229;41.820;23.490;2022-09-09T09:36:34;4.97;;;3.92;;
10365;SDS011;5229;41.820;23.490;2022-09-09T09:39:05;6.15;;;4.43;;
10365;SDS011;5229;41.820;23.490;2022-09-09T09:41:33;6.05;;;4.03;;
10365;SDS011;5229;41.820;23.490;2022-09-09T09:44:02;4.63;;;4.10;;
10365;SDS011;5229;41.820;23.490;2022-09-09T09:46:29;7.95;;;4.20;;
10365;SDS011;5229;41.820;23.490;2022-09-09T09:48:57;4.05;;;3.75;;
10365;SDS011;5229;41.820;23.490;2022-09-09T09:51:25;6.18;;;3.92;;
10365;SDS011;5229;41.820;23.490;2022-09-09T09:53:53;4.45;;;3.90;;
10365;SDS011;5229;41.820;23.490;2022-09-09T09:56:30;4.05;;;3.67;;
10365;SDS011;5229;41.820;23.490;2022-09-09T09:58:57;4.20;;;3.80;;
10365;SDS011;5229;41.820;23.490;2022-09-09T10:01:26;6.28;;;3.83;;
10365;SDS011;5229;41.820;23.490;2022-09-09T10:03:57;5.28;;;3.83;;
10365;SDS011;5229;41.820;23.490;2022-09-09T10:06:31;4.43;;;4.13;;
10365;SDS011;5229;41.820;23.490;2022-09-09T10:08:59;3.53;;;3.22;;
10365;SDS011;5229;41.820;23.490;2022-09-09T10:11:35;3.70;;;3.40;;
10365;SDS011;5229;41.820;23.490;2022-09-09T10:14:13;5.95;;;4.28;;
10365;SDS011;5229;41.820;23.490;2022-09-09T10:16:52;3.97;;;3.67;;
10365;SDS011;5229;41.820;23.490;2022-09-09T10:19:32;4.25;;;3.92;;
10365;SDS011;5229;41.820;23.490;2022-09-09T10:22:12;4.25;;;3.85;;
10365;SDS011;5229;41.820;23.490;2022-09-09T10:25:04;4.10;;;3.55;;
10365;SDS011;5229;41.820;23.490;2022-09-09T10:27:49;4.32;;;3.92;;
10365;SDS011;5229;41.820;23.490;2022-09-09T10:30:30;5.13;;;4.63;;
10365;SDS011;5229;41.820;23.490;2022-09-09T10:33:09;4.07;;;3.78;;
10365;SDS011;5229;41.820;23.490;2022-09-09T10:35:42;6.30;;;4.13;;
10365;SDS011;5229;41.820;23.490;2022-09-09T10:38:17;6.72;;;4.40;;
10365;SDS011;5229;41.820;23.490;2022-09-09T10:46:55;4.63;;;4.13;;
10365;SDS011;5229;41.820;23.490;2022-09-09T10:49:41;5.40;;;4.53;;
10365;SDS011;5229;41.820;23.490;2022-09-09T10:52:24;6.30;;;3.97;;
10365;SDS011;5229;41.820;23.490;2022-09-09T10:54:59;5.15;;;3.97;;
10365;SDS011;5229;41.820;23.490;2022-09-09T10:57:33;4.07;;;3.72;;
10365;SDS011;5229;41.820;23.490;2022-09-09T11:00:05;3.92;;;3.63;;
10365;SDS011;5229;41.820;23.490;2022-09-09T11:02:40;5.82;;;4.03;;
10365;SDS011;5229;41.820;23.490;2022-09-09T11:05:10;7.25;;;3.70;;
10365;SDS011;5229;41.820;23.490;2022-09-09T11:07:44;4.05;;;3.65;;
10365;SDS011;5229;41.820;23.490;2022-09-09T11:10:17;5.88;;;3.78;;
10365;SDS011;5229;41.820;23.490;2022-09-09T11:12:50;5.03;;;4.45;;
10365;SDS011;5229;41.820;23.490;2022-09-09T11:15:23;3.75;;;3.45;;
10365;SDS011;5229;41.820;23.490;2022-09-09T11:17:58;3.95;;;3.55;;
10365;SDS011;5229;41.820;23.490;2022-09-09T11:20:29;3.90;;;3.33;;
10365;SDS011;5229;41.820;23.490;2022-09-09T11:22:58;4.15;;;3.75;;
10365;SDS011;5229;41.820;23.490;2022-09-09T11:25:30;4.20;;;3.80;;
10365;SDS011;5229;41.820;23.490;2022-09-09T11:30:56;5.45;;;3.63;;
10365;SDS011;5229;41.820;23.490;2022-09-09T11:33:47;5.93;;;3.78;;
10365;SDS011;5229;41.820;23.490;2022-09-09T11:36:38;4.63;;;4.07;;
10365;SDS011;5229;41.820;23.490;2022-09-09T11:39:24;4.03;;;3.63;;
10365;SDS011;5229;41.820;23.490;2022-09-09T11:42:06;4.10;;;3.70;;
10365;SDS011;5229;41.820;23.490;2022-09-09T11:44:34;5.43;;;3.90;;
10365;SDS011;5229;41.820;23.490;2022-09-09T11:47:01;4.70;;;3.72;;
10365;SDS011;5229;41.820;23.490;2022-09-09T11:49:28;4.00;;;3.63;;
10365;SDS011;5229;41.820;23.490;2022-09-09T11:52:11;4.18;;;3.78;;
10365;SDS011;5229;41.820;23.490;2022-09-09T11:54:47;3.65;;;3.00;;
10365;SDS011;5229;41.820;23.490;2022-09-09T11:57:25;8.20;;;4.25;;
10365;SDS011;5229;41.820;23.490;2022-09-09T11:59:58;8.75;;;3.15;;
10365;SDS011;5229;41.820;23.490;2022-09-09T12:02:26;3.55;;;3.25;;
10365;SDS011;5229;41.820;23.490;2022-09-09T12:04:57;3.85;;;3.55;;
10365;SDS011;5229;41.820;23.490;2022-09-09T12:07:35;4.97;;;4.05;;
10365;SDS011;5229;41.820;23.490;2022-09-09T12:10:17;4.47;;;3.58;;
10365;SDS011;5229;41.820;23.490;2022-09-09T12:12:48;7.97;;;3.88;;
10365;SDS011;5229;41.820;23.490;2022-09-09T12:15:22;4.80;;;3.80;;
10365;SDS011;5229;41.820;23.490;2022-09-09T12:17:54;5.18;;;3.97;;
10365;SDS011;5229;41.820;23.490;2022-09-09T12:20:22;9.05;;;3.80;;
10365;SDS011;5229;41.820;23.490;2022-09-09T12:28:51;4.80;;;3.67;;
10365;SDS011;5229;41.820;23.490;2022-09-09T12:31:28;4.63;;;3.90;;
10365;SDS011;5229;41.820;23.490;2022-09-09T12:34:09;4.10;;;3.70;;
10365;SDS011;5229;41.820;23.490;2022-09-09T12:36:38;5.57;;;3.40;;
10365;SDS011;5229;41.820;23.490;2022-09-09T12:39:15;4.07;;;3.72;;
10365;SDS011;5229;41.820;23.490;2022-09-09T12:41:52;4.07;;;3.78;;
10365;SDS011;5229;41.820;23.490;2022-09-09T12:44:22;3.70;;;3.33;;
10365;SDS011;5229;41.820;23.490;2022-09-09T12:46:50;4.80;;;3.70;;
10365;SDS011;5229;41.820;23.490;2022-09-09T12:49:24;3.90;;;3.42;;
10365;SDS011;5229;41.820;23.490;2022-09-09T12:51:56;4.22;;;3.70;;
10365;SDS011;5229;41.820;23.490;2022-09-09T12:54:25;4.57;;;4.05;;
10365;SDS011;5229;41.820;23.490;2022-09-09T12:56:53;4.32;;;3.30;;
10365;SDS011;5229;41.820;23.490;2022-09-09T12:59:23;4.15;;;3.80;;
10365;SDS011;5229;41.820;23.490;2022-09-09T13:01:55;4.53;;;4.13;;
10365;SDS011;5229;41.820;23.490;2022-09-09T13:04:23;4.90;;;3.67;;
10365;SDS011;5229;41.820;23.490;2022-09-09T13:06:49;5.07;;;3.50;;
10365;SDS011;5229;41.820;23.490;2022-09-09T13:09:18;4.53;;;3.90;;
10365;SDS011;5229;41.820;23.490;2022-09-09T13:11:47;4.35;;;3.85;;
10365;SDS011;5229;41.820;23.490;2022-09-09T13:14:23;5.32;;;4.07;;
10365;SDS011;5229;41.820;23.490;2022-09-09T13:16:55;3.83;;;3.45;;
10365;SDS011;5229;41.820;23.490;2022-09-09T13:19:24;8.77;;;3.75;;
10365;SDS011;5229;41.820;23.490;2022-09-09T13:21:54;5.18;;;3.90;;
10365;SDS011;5229;41.820;23.490;2022-09-09T13:24:31;3.70;;;3.38;;
10365;SDS011;5229;41.820;23.490;2022-09-09T13:27:01;6.07;;;3.95;;
10365;SDS011;5229;41.820;23.490;2022-09-09T13:29:30;5.90;;;3.70;;
10365;SDS011;5229;41.820;23.490;2022-09-09T13:32:03;4.72;;;3.47;;
10365;SDS011;5229;41.820;23.490;2022-09-09T13:34:31;4.63;;;3.67;;
10365;SDS011;5229;41.820;23.490;2022-09-09T13:37:00;4.05;;;3.33;;
10365;SDS011;5229;41.820;23.490;2022-09-09T13:39:30;9.85;;;3.80;;
10365;SDS011;5229;41.820;23.490;2022-09-09T13:42:01;4.70;;;3.25;;
10365;SDS011;5229;41.820;23.490;2022-09-09T13:44:29;4.00;;;2.85;;
10365;SDS011;5229;41.820;23.490;2022-09-09T13:47:02;5.57;;;3.30;;
10365;SDS011;5229;41.820;23.490;2022-09-09T13:49:30;5.20;;;2.83;;
10365;SDS011;5229;41.820;23.490;2022-09-09T13:52:08;3.95;;;3.00;;
10365;SDS011;5229;41.820;23.490;2022-09-09T13:54:37;3.80;;;3.50;;
10365;SDS011;5229;41.820;23.490;2022-09-09T13:57:05;5.22;;;3.40;;
10365;SDS011;5229;41.820;23.490;2022-09-09T13:59:42;4.35;;;3.58;;
10365;SDS011;5229;41.820;23.490;2022-09-09T14:02:08;3.60;;;3.30;;
10365;SDS011;5229;41.820;23.490;2022-09-09T14:04:35;5.15;;;3.45;;
10365;SDS011;5229;41.820;23.490;2022-09-09T14:07:02;7.07;;;3.78;;
10365;SDS011;5229;41.820;23.490;2022-09-09T14:09:29;6.20;;;4.00;;
10365;SDS011;5229;41.820;23.490;2022-09-09T14:11:56;6.20;;;3.85;;
10365;SDS011;5229;41.820;23.490;2022-09-09T14:14:24;5.07;;;3.72;;
10365;SDS011;5229;41.820;23.490;2022-09-09T14:16:51;4.10;;;3.70;;
10365;SDS011;5229;41.820;23.490;2022-09-09T14:19:18;4.63;;;3.50;;
10365;SDS011;5229;41.820;23.490;2022-09-09T14:21:45;8.73;;;4.38;;
10365;SDS011;5229;41.820;23.490;2022-09-09T14:24:11;5.75;;;4.00;;
10365;SDS011;5229;41.820;23.490;2022-09-09T14:26:39;4.65;;;4.03;;
10365;SDS011;5229;41.820;23.490;2022-09-09T14:29:06;4.13;;;3.80;;
10365;SDS011;5229;41.820;23.490;2022-09-09T14:31:34;6.97;;;4.30;;
10365;SDS011;5229;41.820;23.490;2022-09-09T14:34:00;5.68;;;4.18;;
10365;SDS011;5229;41.820;23.490;2022-09-09T14:36:27;6.32;;;4.18;;
10365;SDS011;5229;41.820;23.490;2022-09-09T14:38:55;5.50;;;4.28;;
10365;SDS011;5229;41.820;23.490;2022-09-09T14:41:22;4.35;;;4.03;;
10365;SDS011;5229;41.820;23.490;2022-09-09T14:43:50;5.20;;;3.85;;
10365;SDS011;5229;41.820;23.490;2022-09-09T14:46:19;7.65;;;4.07;;
10365;SDS011;5229;41.820;23.490;2022-09-09T14:48:48;4.90;;;4.07;;
10365;SDS011;5229;41.820;23.490;2022-09-09T14:51:15;5.57;;;3.83;;
10365;SDS011;5229;41.820;23.490;2022-09-09T14:53:44;4.53;;;4.13;;
10365;SDS011;5229;41.820;23.490;2022-09-09T14:56:12;4.85;;;4.10;;
10365;SDS011;5229;41.820;23.490;2022-09-09T14:58:41;7.65;;;4.05;;
10365;SDS011;5229;41.820;23.490;2022-09-09T15:01:09;6.22;;;3.78;;
10365;SDS011;5229;41.820;23.490;2022-09-09T15:03:37;3.58;;;3.28;;
10365;SDS011;5229;41.820;23.490;2022-09-09T15:06:06;4.80;;;3.80;;
10365;SDS011;5229;41.820;23.490;2022-09-09T15:08:34;8.20;;;4.07;;
10365;SDS011;5229;41.820;23.490;2022-09-09T15:11:01;4.63;;;4.18;;
10365;SDS011;5229;41.820;23.490;2022-09-09T15:13:29;4.65;;;4.00;;
10365;SDS011;5229;41.820;23.490;2022-09-09T15:16:00;4.32;;;3.90;;
10365;SDS011;5229;41.820;23.490;2022-09-09T15:18:29;8.75;;;3.92;;
10365;SDS011;5229;41.820;23.490;2022-09-09T15:20:58;4.38;;;3.55;;
10365;SDS011;5229;41.820;23.490;2022-09-09T15:23:27;5.13;;;3.75;;